sensor_id;sensor_type;location;lat;lon;timestamp;temperature;humidity
21481;DHT22;10902;48.158;8.634;2024-02-21T00:01:33;0.80;99.90
21481;DHT22;10902;48.158;8.634;2024-02-21T00:04:18;0.80;99.90
21481;DHT22;10902;48.158;8.634;2024-02-21T00:07:05;0.70;99.90
21481;DHT22;10902;48.158;8.634;2024-02-21T00:09:50;0.70;99.90
21481;DHT22;10902;48.158;8.634;2024-02-21T00:12:36;0.60;99.90
21481;DHT22;10902;48.158;8.634;2024-02-21T00:15:21;0.60;99.90
21481;DHT22;10902;48.158;8.634;2024-02-21T00:18:07;0.60;99.90
21481;DHT22;10902;48.158;8.634;2024-02-21T00:20:53;0.60;99.90
21481;DHT22;10902;48.158;8.634;2024-02-21T00:23:39;0.60;99.90
21481;DHT22;10902;48.158;8.634;2024-02-21T00:26:24;0.60;99.90
21481;DHT22;10902;48.158;8.634;2024-02-21T00:29:11;0.60;99.90
21481;DHT22;10902;48.158;8.634;2024-02-21T00:31:56;0.70;99.90
21481;DHT22;10902;48.158;8.634;2024-02-21T00:34:42;0.70;99.90
21481;DHT22;10902;48.158;8.634;2024-02-21T00:37:28;0.80;99.90
21481;DHT22;10902;48.158;8.634;2024-02-21T00:40:14;0.90;99.90
21481;DHT22;10902;48.158;8.634;2024-02-21T00:43:05;1.00;99.90
21481;DHT22;10902;48.158;8.634;2024-02-21T00:45:51;1.00;99.90
21481;DHT22;10902;48.158;8.634;2024-02-21T00:48:36;1.10;99.90
21481;DHT22;10902;48.158;8.634;2024-02-21T00:51:22;1.10;99.90
21481;DHT22;10902;48.158;8.634;2024-02-21T00:54:07;1.10;99.90
21481;DHT22;10902;48.158;8.634;2024-02-21T00:56:53;1.10;99.90
21481;DHT22;10902;48.158;8.634;2024-02-21T00:59:38;1.10;99.90
21481;DHT22;10902;48.158;8.634;2024-02-21T01:02:24;1.00;99.90
21481;DHT22;10902;48.158;8.634;2024-02-21T01:05:09;1.00;99.90
21481;DHT22;10902;48.158;8.634;2024-02-21T01:07:55;1.00;99.90
21481;DHT22;10902;48.158;8.634;2024-02-21T01:10:41;1.00;99.90
21481;DHT22;10902;48.158;8.634;2024-02-21T01:13:26;1.00;99.90
21481;DHT22;10902;48.158;8.634;2024-02-21T01:16:12;1.00;99.90
21481;DHT22;10902;48.158;8.634;2024-02-21T01:18:57;0.90;99.90
21481;DHT22;10902;48.158;8.634;2024-02-21T01:21:43;0.90;99.90
21481;DHT22;10902;48.158;8.634;2024-02-21T01:24:29;0.90;99.90
21481;DHT22;10902;48.158;8.634;2024-02-21T01:27:15;0.90;99.90
21481;DHT22;10902;48.158;8.634;2024-02-21T01:30:00;0.90;99.90
21481;DHT22;10902;48.158;8.634;2024-02-21T01:32:46;0.90;99.90
21481;DHT22;10902;48.158;8.634;2024-02-21T01:35:32;1.00;99.90
21481;DHT22;10902;48.158;8.634;2024-02-21T01:38:17;1.00;99.90
21481;DHT22;10902;48.158;8.634;2024-02-21T01:41:03;0.90;99.90
21481;DHT22;10902;48.158;8.634;2024-02-21T01:43:49;0.90;99.90
21481;DHT22;10902;48.158;8.634;2024-02-21T01:46:35;0.80;99.90
21481;DHT22;10902;48.158;8.634;2024-02-21T01:49:20;0.80;99.90
21481;DHT22;10902;48.158;8.634;2024-02-21T01:52:07;0.80;99.90
21481;DHT22;10902;48.158;8.634;2024-02-21T01:54:53;0.90;99.90
21481;DHT22;10902;48.158;8.634;2024-02-21T01:57:44;0.90;99.90
21481;DHT22;10902;48.158;8.634;2024-02-21T02:00:32;0.90;99.90
21481;DHT22;10902;48.158;8.634;2024-02-21T02:03:18;0.90;99.90
21481;DHT22;10902;48.158;8.634;2024-02-21T02:06:07;0.80;99.90
21481;DHT22;10902;48.158;8.634;2024-02-21T02:08:54;0.80;99.90
21481;DHT22;10902;48.158;8.634;2024-02-21T02:11:40;0.80;99.90
21481;DHT22;10902;48.158;8.634;2024-02-21T02:14:25;0.90;99.90
21481;DHT22;10902;48.158;8.634;2024-02-21T02:17:11;0.90;99.90
21481;DHT22;10902;48.158;8.634;2024-02-21T02:19:57;0.90;99.90
21481;DHT22;10902;48.158;8.634;2024-02-21T02:22:43;0.90;99.90
21481;DHT22;10902;48.158;8.634;2024-02-21T02:25:30;1.00;99.90
21481;DHT22;10902;48.158;8.634;2024-02-21T02:28:16;1.00;99.90
21481;DHT22;10902;48.158;8.634;2024-02-21T02:31:01;1.00;99.90
21481;DHT22;10902;48.158;8.634;2024-02-21T02:33:47;1.10;99.90
21481;DHT22;10902;48.158;8.634;2024-02-21T02:36:33;1.10;99.90
21481;DHT22;10902;48.158;8.634;2024-02-21T02:39:19;1.20;99.90
21481;DHT22;10902;48.158;8.634;2024-02-21T02:42:05;1.30;99.90
21481;DHT22;10902;48.158;8.634;2024-02-21T02:44:51;1.30;99.90
21481;DHT22;10902;48.158;8.634;2024-02-21T02:47:36;1.30;99.90
21481;DHT22;10902;48.158;8.634;2024-02-21T02:50:25;1.50;99.90
21481;DHT22;10902;48.158;8.634;2024-02-21T02:53:11;1.50;99.90
21481;DHT22;10902;48.158;8.634;2024-02-21T02:55:56;1.40;99.90
21481;DHT22;10902;48.158;8.634;2024-02-21T02:58:45;1.40;99.90
21481;DHT22;10902;48.158;8.634;2024-02-21T03:01:34;1.40;99.90
21481;DHT22;10902;48.158;8.634;2024-02-21T03:04:19;1.50;99.90
21481;DHT22;10902;48.158;8.634;2024-02-21T03:07:05;1.60;99.90
21481;DHT22;10902;48.158;8.634;2024-02-21T03:09:50;1.70;99.90
21481;DHT22;10902;48.158;8.634;2024-02-21T03:12:36;1.70;99.90
21481;DHT22;10902;48.158;8.634;2024-02-21T03:15:22;1.60;99.90
21481;DHT22;10902;48.158;8.634;2024-02-21T03:18:07;1.60;99.90
21481;DHT22;10902;48.158;8.634;2024-02-21T03:20:53;1.60;99.90
21481;DHT22;10902;48.158;8.634;2024-02-21T03:23:38;1.50;99.90
21481;DHT22;10902;48.158;8.634;2024-02-21T03:26:24;1.50;99.90
21481;DHT22;10902;48.158;8.634;2024-02-21T03:29:10;1.70;99.90
21481;DHT22;10902;48.158;8.634;2024-02-21T03:31:56;1.70;99.90
21481;DHT22;10902;48.158;8.634;2024-02-21T03:34:42;1.60;99.90
21481;DHT22;10902;48.158;8.634;2024-02-21T03:37:27;1.50;99.90
21481;DHT22;10902;48.158;8.634;2024-02-21T03:40:13;1.50;99.90
21481;DHT22;10902;48.158;8.634;2024-02-21T03:42:59;1.60;99.90
21481;DHT22;10902;48.158;8.634;2024-02-21T03:45:44;1.70;99.90
21481;DHT22;10902;48.158;8.634;2024-02-21T03:48:30;1.70;99.90
21481;DHT22;10902;48.158;8.634;2024-02-21T03:51:15;1.70;99.90
21481;DHT22;10902;48.158;8.634;2024-02-21T03:54:01;1.80;99.90
21481;DHT22;10902;48.158;8.634;2024-02-21T03:56:46;1.90;99.90
21481;DHT22;10902;48.158;8.634;2024-02-21T03:59:34;1.90;99.90
21481;DHT22;10902;48.158;8.634;2024-02-21T04:02:20;1.80;99.90
21481;DHT22;10902;48.158;8.634;2024-02-21T04:05:06;1.90;99.90
21481;DHT22;10902;48.158;8.634;2024-02-21T04:07:56;1.90;99.90
21481;DHT22;10902;48.158;8.634;2024-02-21T04:10:41;1.90;99.90
21481;DHT22;10902;48.158;8.634;2024-02-21T04:13:27;1.90;99.90
21481;DHT22;10902;48.158;8.634;2024-02-21T04:16:13;1.90;99.90
21481;DHT22;10902;48.158;8.634;2024-02-21T04:18:58;2.00;99.90
21481;DHT22;10902;48.158;8.634;2024-02-21T04:21:44;2.00;99.90
21481;DHT22;10902;48.158;8.634;2024-02-21T04:24:30;2.00;99.90
21481;DHT22;10902;48.158;8.634;2024-02-21T04:27:15;2.00;99.90
21481;DHT22;10902;48.158;8.634;2024-02-21T04:30:01;2.00;99.90
21481;DHT22;10902;48.158;8.634;2024-02-21T04:32:46;1.90;99.90
21481;DHT22;10902;48.158;8.634;2024-02-21T04:35:32;1.70;99.90
21481;DHT22;10902;48.158;8.634;2024-02-21T04:38:17;1.60;99.90
21481;DHT22;10902;48.158;8.634;2024-02-21T04:41:03;1.50;99.90
21481;DHT22;10902;48.158;8.634;2024-02-21T04:43:49;1.40;99.90
21481;DHT22;10902;48.158;8.634;2024-02-21T04:46:34;1.30;99.90
21481;DHT22;10902;48.158;8.634;2024-02-21T04:49:20;1.30;99.90
21481;DHT22;10902;48.158;8.634;2024-02-21T04:52:05;1.20;99.90
21481;DHT22;10902;48.158;8.634;2024-02-21T04:54:51;1.20;99.90
21481;DHT22;10902;48.158;8.634;2024-02-21T04:57:37;1.10;99.90
21481;DHT22;10902;48.158;8.634;2024-02-21T05:00:23;1.10;99.90
21481;DHT22;10902;48.158;8.634;2024-02-21T05:03:08;1.10;99.90
21481;DHT22;10902;48.158;8.634;2024-02-21T05:05:54;1.10;99.90
21481;DHT22;10902;48.158;8.634;2024-02-21T05:08:40;1.10;99.90
21481;DHT22;10902;48.158;8.634;2024-02-21T05:11:26;1.10;99.90
21481;DHT22;10902;48.158;8.634;2024-02-21T05:14:12;1.20;99.90
21481;DHT22;10902;48.158;8.634;2024-02-21T05:16:57;1.10;99.90
21481;DHT22;10902;48.158;8.634;2024-02-21T05:19:43;1.20;99.90
21481;DHT22;10902;48.158;8.634;2024-02-21T05:22:28;1.30;99.90
21481;DHT22;10902;48.158;8.634;2024-02-21T05:25:14;1.30;99.90
21481;DHT22;10902;48.158;8.634;2024-02-21T05:28:00;1.40;99.90
21481;DHT22;10902;48.158;8.634;2024-02-21T05:30:47;1.50;99.90
21481;DHT22;10902;48.158;8.634;2024-02-21T05:33:33;1.50;99.90
21481;DHT22;10902;48.158;8.634;2024-02-21T05:36:18;1.40;99.90
21481;DHT22;10902;48.158;8.634;2024-02-21T05:39:04;1.40;99.90
21481;DHT22;10902;48.158;8.634;2024-02-21T05:41:49;1.40;99.90
21481;DHT22;10902;48.158;8.634;2024-02-21T05:44:36;1.40;99.90
21481;DHT22;10902;48.158;8.634;2024-02-21T05:47:21;1.50;99.90
21481;DHT22;10902;48.158;8.634;2024-02-21T05:50:07;1.50;99.90
21481;DHT22;10902;48.158;8.634;2024-02-21T05:52:54;1.60;99.90
21481;DHT22;10902;48.158;8.634;2024-02-21T05:55:41;1.70;99.90
21481;DHT22;10902;48.158;8.634;2024-02-21T05:58:26;1.60;99.90
21481;DHT22;10902;48.158;8.634;2024-02-21T06:01:12;1.60;99.90
21481;DHT22;10902;48.158;8.634;2024-02-21T06:03:58;1.60;99.90
21481;DHT22;10902;48.158;8.634;2024-02-21T06:06:43;1.50;99.90
21481;DHT22;10902;48.158;8.634;2024-02-21T06:09:29;1.50;99.90
21481;DHT22;10902;48.158;8.634;2024-02-21T06:12:14;1.50;99.90
21481;DHT22;10902;48.158;8.634;2024-02-21T06:15:00;1.40;99.90
21481;DHT22;10902;48.158;8.634;2024-02-21T06:17:45;1.30;99.90
21481;DHT22;10902;48.158;8.634;2024-02-21T06:20:31;1.30;99.90
21481;DHT22;10902;48.158;8.634;2024-02-21T06:23:17;1.30;99.90
21481;DHT22;10902;48.158;8.634;2024-02-21T06:26:03;1.30;99.90
21481;DHT22;10902;48.158;8.634;2024-02-21T06:28:48;1.30;99.90
21481;DHT22;10902;48.158;8.634;2024-02-21T06:31:35;1.30;99.90
21481;DHT22;10902;48.158;8.634;2024-02-21T06:34:21;1.40;99.90
21481;DHT22;10902;48.158;8.634;2024-02-21T06:37:06;1.50;99.90
21481;DHT22;10902;48.158;8.634;2024-02-21T06:39:52;1.50;99.90
21481;DHT22;10902;48.158;8.634;2024-02-21T06:42:37;1.50;99.90
21481;DHT22;10902;48.158;8.634;2024-02-21T06:45:23;1.70;99.90
21481;DHT22;10902;48.158;8.634;2024-02-21T06:48:09;1.80;99.90
21481;DHT22;10902;48.158;8.634;2024-02-21T06:50:54;1.70;99.90
21481;DHT22;10902;48.158;8.634;2024-02-21T06:53:40;1.70;99.90
21481;DHT22;10902;48.158;8.634;2024-02-21T06:56:25;1.50;99.90
21481;DHT22;10902;48.158;8.634;2024-02-21T06:59:13;1.40;99.90
21481;DHT22;10902;48.158;8.634;2024-02-21T07:02:01;1.30;99.90
21481;DHT22;10902;48.158;8.634;2024-02-21T07:04:46;1.30;99.90
21481;DHT22;10902;48.158;8.634;2024-02-21T07:07:32;1.50;99.90
21481;DHT22;10902;48.158;8.634;2024-02-21T07:10:18;1.50;99.90
21481;DHT22;10902;48.158;8.634;2024-02-21T07:13:03;1.50;99.90
21481;DHT22;10902;48.158;8.634;2024-02-21T07:15:49;1.60;99.90
21481;DHT22;10902;48.158;8.634;2024-02-21T07:18:34;1.50;99.90
21481;DHT22;10902;48.158;8.634;2024-02-21T07:21:20;1.50;99.90
21481;DHT22;10902;48.158;8.634;2024-02-21T07:24:06;1.50;99.90
21481;DHT22;10902;48.158;8.634;2024-02-21T07:26:51;1.50;99.90
21481;DHT22;10902;48.158;8.634;2024-02-21T07:29:37;1.60;99.90
21481;DHT22;10902;48.158;8.634;2024-02-21T07:32:22;1.60;99.90
21481;DHT22;10902;48.158;8.634;2024-02-21T07:35:08;1.70;99.90
21481;DHT22;10902;48.158;8.634;2024-02-21T07:37:57;1.90;99.90
21481;DHT22;10902;48.158;8.634;2024-02-21T07:40:44;2.00;99.90
21481;DHT22;10902;48.158;8.634;2024-02-21T07:43:30;2.20;99.90
21481;DHT22;10902;48.158;8.634;2024-02-21T07:46:15;2.30;99.90
21481;DHT22;10902;48.158;8.634;2024-02-21T07:49:01;2.20;99.90
21481;DHT22;10902;48.158;8.634;2024-02-21T07:51:47;2.20;99.90
21481;DHT22;10902;48.158;8.634;2024-02-21T07:54:33;2.20;99.90
21481;DHT22;10902;48.158;8.634;2024-02-21T07:57:18;2.30;99.90
21481;DHT22;10902;48.158;8.634;2024-02-21T08:00:05;2.30;99.90
21481;DHT22;10902;48.158;8.634;2024-02-21T08:02:51;2.40;99.90
21481;DHT22;10902;48.158;8.634;2024-02-21T08:05:36;2.40;99.90
21481;DHT22;10902;48.158;8.634;2024-02-21T08:08:22;2.60;99.90
21481;DHT22;10902;48.158;8.634;2024-02-21T08:11:07;2.70;99.90
21481;DHT22;10902;48.158;8.634;2024-02-21T08:13:53;3.00;99.90
21481;DHT22;10902;48.158;8.634;2024-02-21T08:16:39;3.10;99.90
21481;DHT22;10902;48.158;8.634;2024-02-21T08:19:24;3.10;99.90
21481;DHT22;10902;48.158;8.634;2024-02-21T08:22:10;3.30;99.90
21481;DHT22;10902;48.158;8.634;2024-02-21T08:24:56;3.50;99.90
21481;DHT22;10902;48.158;8.634;2024-02-21T08:27:41;3.70;99.90
21481;DHT22;10902;48.158;8.634;2024-02-21T08:30:27;4.00;99.90
21481;DHT22;10902;48.158;8.634;2024-02-21T08:33:15;4.10;99.90
21481;DHT22;10902;48.158;8.634;2024-02-21T08:36:02;4.40;99.90
21481;DHT22;10902;48.158;8.634;2024-02-21T08:38:48;4.40;99.90
21481;DHT22;10902;48.158;8.634;2024-02-21T08:41:34;4.50;99.90
21481;DHT22;10902;48.158;8.634;2024-02-21T08:44:21;4.60;99.90
21481;DHT22;10902;48.158;8.634;2024-02-21T08:47:07;4.80;99.90
21481;DHT22;10902;48.158;8.634;2024-02-21T08:49:55;4.80;99.90
21481;DHT22;10902;48.158;8.634;2024-02-21T08:52:40;5.10;99.90
21481;DHT22;10902;48.158;8.634;2024-02-21T08:55:26;5.20;99.90
21481;DHT22;10902;48.158;8.634;2024-02-21T08:58:12;5.20;99.90
21481;DHT22;10902;48.158;8.634;2024-02-21T09:00:57;5.40;99.90
21481;DHT22;10902;48.158;8.634;2024-02-21T09:03:43;5.60;99.90
21481;DHT22;10902;48.158;8.634;2024-02-21T09:06:29;5.70;99.90
21481;DHT22;10902;48.158;8.634;2024-02-21T09:09:15;5.70;99.90
21481;DHT22;10902;48.158;8.634;2024-02-21T09:12:01;5.60;99.90
21481;DHT22;10902;48.158;8.634;2024-02-21T09:14:51;5.60;99.90
21481;DHT22;10902;48.158;8.634;2024-02-21T09:17:36;5.50;99.90
21481;DHT22;10902;48.158;8.634;2024-02-21T09:20:22;5.60;99.90
21481;DHT22;10902;48.158;8.634;2024-02-21T09:23:07;5.70;99.90
21481;DHT22;10902;48.158;8.634;2024-02-21T09:25:53;5.70;99.90
21481;DHT22;10902;48.158;8.634;2024-02-21T09:28:40;5.80;99.90
21481;DHT22;10902;48.158;8.634;2024-02-21T09:31:26;5.80;99.90
21481;DHT22;10902;48.158;8.634;2024-02-21T09:34:11;6.10;99.90
21481;DHT22;10902;48.158;8.634;2024-02-21T09:36:57;6.30;99.90
21481;DHT22;10902;48.158;8.634;2024-02-21T09:39:43;6.20;99.90
21481;DHT22;10902;48.158;8.634;2024-02-21T09:42:40;6.30;99.90
21481;DHT22;10902;48.158;8.634;2024-02-21T09:45:26;6.50;99.90
21481;DHT22;10902;48.158;8.634;2024-02-21T09:51:40;6.70;99.90
21481;DHT22;10902;48.158;8.634;2024-02-21T09:54:32;7.00;99.90
21481;DHT22;10902;48.158;8.634;2024-02-21T09:57:18;7.20;99.90
21481;DHT22;10902;48.158;8.634;2024-02-21T10:00:05;7.30;99.90
21481;DHT22;10902;48.158;8.634;2024-02-21T10:02:54;7.20;99.90
21481;DHT22;10902;48.158;8.634;2024-02-21T10:05:49;7.00;99.90
21481;DHT22;10902;48.158;8.634;2024-02-21T10:08:36;7.30;99.90
21481;DHT22;10902;48.158;8.634;2024-02-21T10:11:25;7.40;99.90
21481;DHT22;10902;48.158;8.634;2024-02-21T10:14:11;7.30;99.90
21481;DHT22;10902;48.158;8.634;2024-02-21T10:16:57;7.50;99.90
21481;DHT22;10902;48.158;8.634;2024-02-21T10:19:46;7.90;99.90
21481;DHT22;10902;48.158;8.634;2024-02-21T10:22:32;8.30;99.90
21481;DHT22;10902;48.158;8.634;2024-02-21T10:25:21;8.50;99.90
21481;DHT22;10902;48.158;8.634;2024-02-21T10:28:06;8.50;99.90
21481;DHT22;10902;48.158;8.634;2024-02-21T10:30:52;8.90;99.90
21481;DHT22;10902;48.158;8.634;2024-02-21T10:33:38;9.10;99.90
21481;DHT22;10902;48.158;8.634;2024-02-21T10:36:24;9.30;99.90
21481;DHT22;10902;48.158;8.634;2024-02-21T10:39:10;9.00;99.90
21481;DHT22;10902;48.158;8.634;2024-02-21T10:42:00;9.10;99.90
21481;DHT22;10902;48.158;8.634;2024-02-21T10:44:52;9.30;99.90
21481;DHT22;10902;48.158;8.634;2024-02-21T10:47:39;9.10;99.90
21481;DHT22;10902;48.158;8.634;2024-02-21T10:50:29;8.80;99.90
21481;DHT22;10902;48.158;8.634;2024-02-21T10:53:33;8.80;99.90
21481;DHT22;10902;48.158;8.634;2024-02-21T10:56:31;8.80;99.90
21481;DHT22;10902;48.158;8.634;2024-02-21T10:59:21;8.70;99.90
21481;DHT22;10902;48.158;8.634;2024-02-21T11:02:07;9.00;99.90
21481;DHT22;10902;48.158;8.634;2024-02-21T11:04:54;9.20;99.90
21481;DHT22;10902;48.158;8.634;2024-02-21T11:07:41;9.20;99.90
21481;DHT22;10902;48.158;8.634;2024-02-21T11:10:27;9.20;99.90
21481;DHT22;10902;48.158;8.634;2024-02-21T11:13:12;8.90;99.90
21481;DHT22;10902;48.158;8.634;2024-02-21T11:16:08;8.70;99.90
21481;DHT22;10902;48.158;8.634;2024-02-21T11:19:07;8.90;99.90
21481;DHT22;10902;48.158;8.634;2024-02-21T11:21:55;9.20;99.90
21481;DHT22;10902;48.158;8.634;2024-02-21T11:24:40;9.30;99.90
21481;DHT22;10902;48.158;8.634;2024-02-21T11:27:33;9.50;99.90
21481;DHT22;10902;48.158;8.634;2024-02-21T11:30:27;9.70;99.90
21481;DHT22;10902;48.158;8.634;2024-02-21T11:33:12;9.60;99.90
21481;DHT22;10902;48.158;8.634;2024-02-21T11:35:58;9.60;99.90
21481;DHT22;10902;48.158;8.634;2024-02-21T11:38:43;9.40;99.90
21481;DHT22;10902;48.158;8.634;2024-02-21T11:41:29;9.50;99.90
21481;DHT22;10902;48.158;8.634;2024-02-21T11:44:14;9.60;99.90
21481;DHT22;10902;48.158;8.634;2024-02-21T11:47:00;9.90;99.90
21481;DHT22;10902;48.158;8.634;2024-02-21T11:49:47;9.70;99.90
21481;DHT22;10902;48.158;8.634;2024-02-21T11:52:34;9.70;99.90
21481;DHT22;10902;48.158;8.634;2024-02-21T11:55:20;10.20;99.90
21481;DHT22;10902;48.158;8.634;2024-02-21T11:58:05;9.60;99.90
21481;DHT22;10902;48.158;8.634;2024-02-21T12:00:52;9.50;99.90
21481;DHT22;10902;48.158;8.634;2024-02-21T12:03:37;9.80;99.90
21481;DHT22;10902;48.158;8.634;2024-02-21T12:06:23;10.50;99.90
21481;DHT22;10902;48.158;8.634;2024-02-21T12:09:09;11.00;99.90
21481;DHT22;10902;48.158;8.634;2024-02-21T12:12:03;10.90;99.90
21481;DHT22;10902;48.158;8.634;2024-02-21T12:14:57;10.90;99.90
21481;DHT22;10902;48.158;8.634;2024-02-21T12:17:45;10.40;99.90
21481;DHT22;10902;48.158;8.634;2024-02-21T12:20:31;10.50;99.90
21481;DHT22;10902;48.158;8.634;2024-02-21T12:23:18;10.50;99.90
21481;DHT22;10902;48.158;8.634;2024-02-21T12:26:04;10.60;99.90
21481;DHT22;10902;48.158;8.634;2024-02-21T12:28:50;10.30;99.90
21481;DHT22;10902;48.158;8.634;2024-02-21T12:31:39;10.40;99.90
21481;DHT22;10902;48.158;8.634;2024-02-21T12:34:24;10.30;99.90
21481;DHT22;10902;48.158;8.634;2024-02-21T12:37:11;10.50;99.90
21481;DHT22;10902;48.158;8.634;2024-02-21T12:40:01;10.20;99.90
21481;DHT22;10902;48.158;8.634;2024-02-21T12:42:46;10.00;99.90
21481;DHT22;10902;48.158;8.634;2024-02-21T12:45:32;10.00;99.90
21481;DHT22;10902;48.158;8.634;2024-02-21T12:48:19;10.10;99.90
21481;DHT22;10902;48.158;8.634;2024-02-21T12:51:05;10.00;99.90
21481;DHT22;10902;48.158;8.634;2024-02-21T12:53:51;10.10;99.90
21481;DHT22;10902;48.158;8.634;2024-02-21T12:56:36;10.10;99.90
21481;DHT22;10902;48.158;8.634;2024-02-21T12:59:23;10.50;99.90
21481;DHT22;10902;48.158;8.634;2024-02-21T13:02:08;10.70;99.90
21481;DHT22;10902;48.158;8.634;2024-02-21T13:04:54;10.50;99.90
21481;DHT22;10902;48.158;8.634;2024-02-21T13:07:40;10.30;99.90
21481;DHT22;10902;48.158;8.634;2024-02-21T13:10:25;10.10;99.90
21481;DHT22;10902;48.158;8.634;2024-02-21T13:13:11;10.10;99.90
21481;DHT22;10902;48.158;8.634;2024-02-21T13:15:58;10.10;99.90
21481;DHT22;10902;48.158;8.634;2024-02-21T13:18:44;10.60;99.90
21481;DHT22;10902;48.158;8.634;2024-02-21T13:21:32;10.90;99.90
21481;DHT22;10902;48.158;8.634;2024-02-21T13:24:18;10.90;99.90
21481;DHT22;10902;48.158;8.634;2024-02-21T13:27:03;10.30;99.90
21481;DHT22;10902;48.158;8.634;2024-02-21T13:29:49;10.50;99.90
21481;DHT22;10902;48.158;8.634;2024-02-21T13:32:35;10.90;99.90
21481;DHT22;10902;48.158;8.634;2024-02-21T13:35:20;10.30;99.90
21481;DHT22;10902;48.158;8.634;2024-02-21T13:38:06;10.30;99.90
21481;DHT22;10902;48.158;8.634;2024-02-21T13:40:52;10.50;99.90
21481;DHT22;10902;48.158;8.634;2024-02-21T13:43:39;10.30;99.90
21481;DHT22;10902;48.158;8.634;2024-02-21T13:46:24;10.10;99.90
21481;DHT22;10902;48.158;8.634;2024-02-21T13:49:10;10.10;99.90
21481;DHT22;10902;48.158;8.634;2024-02-21T13:51:56;10.00;99.90
21481;DHT22;10902;48.158;8.634;2024-02-21T13:54:41;9.80;99.90
21481;DHT22;10902;48.158;8.634;2024-02-21T13:57:27;10.20;99.90
21481;DHT22;10902;48.158;8.634;2024-02-21T14:00:13;10.30;99.90
21481;DHT22;10902;48.158;8.634;2024-02-21T14:02:59;10.00;99.90
21481;DHT22;10902;48.158;8.634;2024-02-21T14:05:46;10.10;99.90
21481;DHT22;10902;48.158;8.634;2024-02-21T14:08:33;9.80;99.90
21481;DHT22;10902;48.158;8.634;2024-02-21T14:11:19;9.70;99.90
21481;DHT22;10902;48.158;8.634;2024-02-21T14:14:05;9.60;99.90
21481;DHT22;10902;48.158;8.634;2024-02-21T14:16:51;9.50;99.90
21481;DHT22;10902;48.158;8.634;2024-02-21T14:19:37;9.50;99.90
21481;DHT22;10902;48.158;8.634;2024-02-21T14:22:22;9.60;99.90
21481;DHT22;10902;48.158;8.634;2024-02-21T14:25:08;9.60;99.90
21481;DHT22;10902;48.158;8.634;2024-02-21T14:27:54;9.70;99.90
21481;DHT22;10902;48.158;8.634;2024-02-21T14:30:39;9.50;99.90
21481;DHT22;10902;48.158;8.634;2024-02-21T14:33:25;9.50;99.90
21481;DHT22;10902;48.158;8.634;2024-02-21T14:36:12;9.50;99.90
21481;DHT22;10902;48.158;8.634;2024-02-21T14:38:57;9.50;99.90
21481;DHT22;10902;48.158;8.634;2024-02-21T14:41:44;9.40;99.90
21481;DHT22;10902;48.158;8.634;2024-02-21T14:44:29;9.40;99.90
21481;DHT22;10902;48.158;8.634;2024-02-21T14:47:15;9.50;99.90
21481;DHT22;10902;48.158;8.634;2024-02-21T14:50:02;9.60;99.90
21481;DHT22;10902;48.158;8.634;2024-02-21T14:52:49;9.70;99.90
21481;DHT22;10902;48.158;8.634;2024-02-21T14:55:35;9.70;99.90
21481;DHT22;10902;48.158;8.634;2024-02-21T14:58:21;9.60;99.90
21481;DHT22;10902;48.158;8.634;2024-02-21T15:01:07;9.50;99.90
21481;DHT22;10902;48.158;8.634;2024-02-21T15:03:53;9.30;99.90
21481;DHT22;10902;48.158;8.634;2024-02-21T15:06:38;9.10;99.90
21481;DHT22;10902;48.158;8.634;2024-02-21T15:09:24;9.10;99.90
21481;DHT22;10902;48.158;8.634;2024-02-21T15:12:10;9.00;99.90
21481;DHT22;10902;48.158;8.634;2024-02-21T15:14:55;9.10;99.90
21481;DHT22;10902;48.158;8.634;2024-02-21T15:17:41;9.10;99.90
21481;DHT22;10902;48.158;8.634;2024-02-21T15:20:26;9.00;99.90
21481;DHT22;10902;48.158;8.634;2024-02-21T15:23:13;9.10;99.90
21481;DHT22;10902;48.158;8.634;2024-02-21T15:25:59;9.10;99.90
21481;DHT22;10902;48.158;8.634;2024-02-21T15:28:46;9.10;99.90
21481;DHT22;10902;48.158;8.634;2024-02-21T15:31:31;9.10;99.90
21481;DHT22;10902;48.158;8.634;2024-02-21T15:34:17;8.90;99.90
21481;DHT22;10902;48.158;8.634;2024-02-21T15:37:03;8.90;99.90
21481;DHT22;10902;48.158;8.634;2024-02-21T15:39:49;8.90;99.90
21481;DHT22;10902;48.158;8.634;2024-02-21T15:42:35;8.80;99.90
21481;DHT22;10902;48.158;8.634;2024-02-21T15:45:21;8.80;99.90
21481;DHT22;10902;48.158;8.634;2024-02-21T15:48:07;8.70;99.90
21481;DHT22;10902;48.158;8.634;2024-02-21T15:50:53;8.70;99.90
21481;DHT22;10902;48.158;8.634;2024-02-21T15:53:39;8.60;99.90
21481;DHT22;10902;48.158;8.634;2024-02-21T15:56:30;8.60;99.90
21481;DHT22;10902;48.158;8.634;2024-02-21T15:59:15;8.60;99.90
21481;DHT22;10902;48.158;8.634;2024-02-21T16:02:01;8.50;99.90
21481;DHT22;10902;48.158;8.634;2024-02-21T16:04:46;8.60;99.90
21481;DHT22;10902;48.158;8.634;2024-02-21T16:07:32;8.50;99.90
21481;DHT22;10902;48.158;8.634;2024-02-21T16:10:18;8.50;99.90
21481;DHT22;10902;48.158;8.634;2024-02-21T16:13:03;8.50;99.90
21481;DHT22;10902;48.158;8.634;2024-02-21T16:15:49;8.50;99.90
21481;DHT22;10902;48.158;8.634;2024-02-21T16:18:35;8.50;99.90
21481;DHT22;10902;48.158;8.634;2024-02-21T16:21:20;8.50;99.90
21481;DHT22;10902;48.158;8.634;2024-02-21T16:24:06;8.40;99.90
21481;DHT22;10902;48.158;8.634;2024-02-21T16:26:52;8.40;99.90
21481;DHT22;10902;48.158;8.634;2024-02-21T16:29:37;8.30;99.90
21481;DHT22;10902;48.158;8.634;2024-02-21T16:32:24;8.30;99.90
21481;DHT22;10902;48.158;8.634;2024-02-21T16:35:12;8.30;99.90
21481;DHT22;10902;48.158;8.634;2024-02-21T16:37:57;8.30;99.90
21481;DHT22;10902;48.158;8.634;2024-02-21T16:40:43;8.30;99.90
21481;DHT22;10902;48.158;8.634;2024-02-21T16:43:29;8.30;99.90
21481;DHT22;10902;48.158;8.634;2024-02-21T16:46:15;8.20;99.90
21481;DHT22;10902;48.158;8.634;2024-02-21T16:49:01;8.20;99.90
21481;DHT22;10902;48.158;8.634;2024-02-21T16:51:46;8.20;99.90
21481;DHT22;10902;48.158;8.634;2024-02-21T16:54:32;8.20;99.90
21481;DHT22;10902;48.158;8.634;2024-02-21T16:57:18;8.10;99.90
21481;DHT22;10902;48.158;8.634;2024-02-21T17:00:04;8.10;99.90
21481;DHT22;10902;48.158;8.634;2024-02-21T17:02:56;8.00;99.90
21481;DHT22;10902;48.158;8.634;2024-02-21T17:05:42;8.00;99.90
21481;DHT22;10902;48.158;8.634;2024-02-21T17:08:28;8.00;99.90
21481;DHT22;10902;48.158;8.634;2024-02-21T17:11:14;8.00;99.90
21481;DHT22;10902;48.158;8.634;2024-02-21T17:14:00;7.90;99.90
21481;DHT22;10902;48.158;8.634;2024-02-21T17:16:45;7.90;99.90
21481;DHT22;10902;48.158;8.634;2024-02-21T17:19:31;7.80;99.90
21481;DHT22;10902;48.158;8.634;2024-02-21T17:22:16;7.80;99.90
21481;DHT22;10902;48.158;8.634;2024-02-21T17:25:02;7.80;99.90
21481;DHT22;10902;48.158;8.634;2024-02-21T17:27:48;7.70;99.90
21481;DHT22;10902;48.158;8.634;2024-02-21T17:30:35;7.70;99.90
21481;DHT22;10902;48.158;8.634;2024-02-21T17:33:21;7.60;99.90
21481;DHT22;10902;48.158;8.634;2024-02-21T17:36:07;7.60;99.90
21481;DHT22;10902;48.158;8.634;2024-02-21T17:38:52;7.60;99.90
21481;DHT22;10902;48.158;8.634;2024-02-21T17:41:38;7.70;99.90
21481;DHT22;10902;48.158;8.634;2024-02-21T17:44:24;7.60;99.90
21481;DHT22;10902;48.158;8.634;2024-02-21T17:47:10;7.60;99.90
21481;DHT22;10902;48.158;8.634;2024-02-21T17:49:56;7.60;99.90